Search for airport 
image banner adimage banner adimage banner ad
image banner ad

KMUT - Muscatine Muni

Located in Muscatine, United States

ICAO - MUT, IATA -

Data provided by Airmate  

General information

Coordinates: N41°22'4" W91°8'54"
Elevation is 547 feet MSL.
Magnetic variation is -01° East
View others Airports in Iowa

Operational data

Special qualification required
Current time UTC:
Current local time:
Weather
METAR: KMUT 150935Z AUTO 27003KT 10SM CLR 15/14 A3007 RMK AO2
View NOTAMs / SUP AIP / TFR affecting this airport [VIEW]
Communications frequencies: [VIEW]

Runways:

RWY identifierQFULength (ft)Width (ft)SurfaceLDA (ft)
0658°5500100CONC
24239°5500100CONC
12125°400075CONC
30305°400075CONC

Airport contact information

Address: Muscatine United States

Other aviation service providers

Flight schools

Carver Aero, Inc.

Carver Aero, Inc.

Blackhawk Soaring Club

Blackhawk Soaring Club
billjleddy@msn.com+1(563)264-5338

Satellite view of KMUT